Kelvedon, United Kingdom
Current Conditions -  °F | °C
As of 5:50 AM on Sunday 23 Nov 2014 (Local Time) from EGMC Reporting Station
Drizzle Drizzle  
Wind Chill: 55°   Ceiling: 1300
Heat Index: 55°   Visibility: 4mi
Dew Point: 54°   Wind: 2mph
Humidity: 94%   Direction: 140°SE
Pressure: 29.94"   Gusts: NA
Location:  51.84°N, 0.71°E
Report Text: EGMC 230550Z 14002KT 6000 -DZ FEW008 OVC013 13/12 Q1014
Loading
Personal Weather Stations






























Interactive Weather Map New forecast layout! Learn more

10-Day Weather Forecast

Advertisements
Track Severe Weather on mobile